createdAt,value
2023-01-11T00:01:22.018Z,1.60
2023-01-11T00:03:52.241Z,0.93
2023-01-11T00:08:47.459Z,1.25
2023-01-11T00:11:16.015Z,1.20
2023-01-11T00:13:45.403Z,1.20
2023-01-11T00:16:13.578Z,0.80
2023-01-11T00:18:41.189Z,1.10
2023-01-11T00:21:09.510Z,1.10
2023-01-11T00:23:38.297Z,0.90
2023-01-11T00:26:07.584Z,0.98
2023-01-11T00:28:37.852Z,1.13
2023-01-11T00:33:36.236Z,1.15
2023-01-11T00:36:03.887Z,1.48
2023-01-11T00:38:43.734Z,1.13
2023-01-11T00:41:30.987Z,0.98
2023-01-11T00:44:16.903Z,1.10
2023-01-11T00:47:03.584Z,1.48
2023-01-11T00:49:31.955Z,1.00
2023-01-11T00:51:59.662Z,1.15
2023-01-11T00:54:27.453Z,1.02
2023-01-11T00:56:55.006Z,1.10
2023-01-11T00:59:22.534Z,0.88
2023-01-11T01:01:50.108Z,1.42
2023-01-11T01:04:20.035Z,1.10
2023-01-11T01:06:47.678Z,1.23
2023-01-11T01:09:15.539Z,1.17
2023-01-11T01:11:43.253Z,1.60
2023-01-11T01:14:26.385Z,0.80
2023-01-11T01:16:54.845Z,1.45
2023-01-11T01:19:22.834Z,0.80
2023-01-11T01:21:50.918Z,1.38
2023-01-11T01:24:20.998Z,1.08
2023-01-11T01:26:48.556Z,1.50
2023-01-11T01:29:16.305Z,0.77
2023-01-11T01:31:45.108Z,1.10
2023-01-11T01:34:12.759Z,1.08
2023-01-11T01:36:40.545Z,1.42
2023-01-11T01:39:08.976Z,0.93
2023-01-11T01:41:36.905Z,1.20
2023-01-11T01:44:06.355Z,1.27
2023-01-11T01:46:34.673Z,0.93
2023-01-11T01:49:09.512Z,1.23
2023-01-11T01:51:42.241Z,0.95
2023-01-11T01:54:12.128Z,1.25
2023-01-11T01:56:49.036Z,1.23
2023-01-11T01:59:18.363Z,1.20
2023-01-11T02:01:49.983Z,1.23
2023-01-11T02:04:20.755Z,1.58
2023-01-11T02:06:48.698Z,1.40
2023-01-11T02:09:24.313Z,1.00
2023-01-11T02:11:52.435Z,1.40
2023-01-11T02:14:22.195Z,1.00
2023-01-11T02:16:52.256Z,1.50
2023-01-11T02:19:51.067Z,0.88
2023-01-11T02:22:23.293Z,1.13
2023-01-11T02:24:50.896Z,1.63
2023-01-11T02:27:45.639Z,0.65
2023-01-11T02:30:17.502Z,0.80
2023-01-11T02:33:04.595Z,1.30
2023-01-11T02:35:41.494Z,1.38
2023-01-11T02:38:29.380Z,0.90
2023-01-11T02:41:28.041Z,1.02
2023-01-11T02:44:24.347Z,1.00
2023-01-11T02:47:01.496Z,1.48
2023-01-11T02:49:46.082Z,1.15
2023-01-11T02:52:20.706Z,1.08
2023-01-11T02:54:54.681Z,1.40
2023-01-11T02:57:26.819Z,1.08
2023-01-11T02:59:57.040Z,1.27
2023-01-11T03:04:52.480Z,1.67
2023-01-11T03:07:36.380Z,1.15
2023-01-11T03:10:19.289Z,0.88
2023-01-11T03:12:59.773Z,0.73
2023-01-11T03:15:50.309Z,1.02
2023-01-11T03:18:24.143Z,1.08
2023-01-11T03:20:53.198Z,1.00
2023-01-11T03:23:49.304Z,1.38
2023-01-11T03:26:49.954Z,1.30
2023-01-11T03:29:31.630Z,0.98
2023-01-11T03:32:09.390Z,1.00
2023-01-11T03:34:40.998Z,0.90
2023-01-11T03:37:48.183Z,1.10
2023-01-11T03:40:21.984Z,1.38
2023-01-11T03:43:13.219Z,3.45
2023-01-11T03:45:44.795Z,1.10
2023-01-11T03:48:17.987Z,1.10
2023-01-11T03:50:48.365Z,1.30
2023-01-11T03:53:20.977Z,1.00
2023-01-11T03:55:53.698Z,0.98
2023-01-11T03:58:21.423Z,1.05
2023-01-11T04:00:49.629Z,1.25
2023-01-11T04:03:17.475Z,1.10
2023-01-11T04:05:46.309Z,1.20
2023-01-11T04:08:13.987Z,1.40
2023-01-11T04:10:41.579Z,0.90
2023-01-11T04:13:12.517Z,1.98
2023-01-11T04:15:40.220Z,1.40
2023-01-11T04:18:07.948Z,1.90
2023-01-11T04:20:36.603Z,1.50
2023-01-11T04:23:08.635Z,1.38
2023-01-11T04:25:36.287Z,1.67
2023-01-11T04:28:03.967Z,1.30
2023-01-11T04:30:31.860Z,1.52
2023-01-11T04:33:00.149Z,0.85
2023-01-11T04:35:27.712Z,0.88
2023-01-11T04:37:56.192Z,1.10
2023-01-11T04:40:24.259Z,1.00
2023-01-11T04:42:54.272Z,0.80
2023-01-11T04:45:21.826Z,1.92
2023-01-11T04:47:56.088Z,0.90
2023-01-11T04:50:27.819Z,1.15
2023-01-11T04:52:55.707Z,1.30
2023-01-11T04:55:23.265Z,0.98
2023-01-11T04:57:50.950Z,0.80
2023-01-11T05:00:18.815Z,1.10
2023-01-11T05:02:46.510Z,1.48
2023-01-11T05:05:14.214Z,1.27
2023-01-11T05:07:41.934Z,1.25
2023-01-11T05:10:10.074Z,1.50
2023-01-11T05:12:40.333Z,1.20
2023-01-11T05:17:39.078Z,2.05
2023-01-11T05:20:06.851Z,1.15
2023-01-11T05:22:34.347Z,1.23
2023-01-11T05:25:02.094Z,1.23
2023-01-11T05:27:29.929Z,1.17
2023-01-11T05:29:57.955Z,1.58
2023-01-11T05:32:26.586Z,1.70
2023-01-11T05:34:54.414Z,3.50
2023-01-11T05:37:22.063Z,3.45
2023-01-11T05:39:52.693Z,2.40
2023-01-11T05:42:21.623Z,1.73
2023-01-11T05:45:08.413Z,2.53
2023-01-11T05:47:38.253Z,1.92
2023-01-11T05:50:06.063Z,2.00
2023-01-11T05:52:33.840Z,1.30
2023-01-11T05:55:04.010Z,1.58
2023-01-11T05:57:31.699Z,3.03
2023-01-11T05:59:59.329Z,4.07
2023-01-11T06:02:29.759Z,3.08
2023-01-11T06:04:57.470Z,3.40
2023-01-11T06:07:25.683Z,1.65
2023-01-11T06:09:53.404Z,3.17
2023-01-11T06:12:20.953Z,2.20
2023-01-11T06:14:48.522Z,1.80
2023-01-11T06:17:16.174Z,2.03
2023-01-11T06:19:43.971Z,4.93
2023-01-11T06:22:11.588Z,8.55
2023-01-11T06:24:39.341Z,3.20
2023-01-11T06:27:07.052Z,2.15
2023-01-11T06:29:37.609Z,3.90
2023-01-11T06:32:05.275Z,3.63
2023-01-11T06:34:36.530Z,3.05
2023-01-11T06:37:04.126Z,1.90
2023-01-11T06:39:31.930Z,2.17
2023-01-11T06:41:59.597Z,2.72
2023-01-11T06:44:27.494Z,5.05
2023-01-11T06:46:55.182Z,6.68
2023-01-11T06:49:22.751Z,2.80
2023-01-11T06:51:50.390Z,9.10
2023-01-11T06:54:23.163Z,3.53
2023-01-11T06:56:51.131Z,2.72
2023-01-11T06:59:18.903Z,3.70
2023-01-11T07:01:47.021Z,6.40
2023-01-11T07:04:14.689Z,4.72
2023-01-11T07:06:42.305Z,3.17
2023-01-11T07:09:10.055Z,3.85
2023-01-11T07:11:39.290Z,7.65
2023-01-11T07:14:06.948Z,5.50
2023-01-11T07:16:37.851Z,6.55
2023-01-11T07:19:06.736Z,3.90
2023-01-11T07:21:34.380Z,5.30
2023-01-11T07:24:02.640Z,4.20
2023-01-11T07:26:31.480Z,5.07
2023-01-11T07:29:02.251Z,4.10
2023-01-11T07:31:29.905Z,13.15
2023-01-11T07:33:57.958Z,9.35
2023-01-11T07:36:25.701Z,6.45
2023-01-11T07:38:53.497Z,4.07
2023-01-11T07:41:40.065Z,6.65
2023-01-11T07:44:08.097Z,6.43
2023-01-11T07:46:36.003Z,6.35
2023-01-11T07:49:03.846Z,5.30
2023-01-11T07:51:31.655Z,12.43
2023-01-11T07:54:02.876Z,6.57
2023-01-11T07:56:34.017Z,11.93
2023-01-11T07:59:04.195Z,6.28
2023-01-11T08:01:31.996Z,9.70
2023-01-11T08:04:02.277Z,6.90
2023-01-11T08:08:57.666Z,7.35
2023-01-11T08:11:44.147Z,4.32
2023-01-11T08:14:30.322Z,8.27
2023-01-11T08:16:58.113Z,6.03
2023-01-11T08:19:25.866Z,5.97
2023-01-11T08:21:53.531Z,5.32
2023-01-11T08:24:21.887Z,6.35
2023-01-11T08:26:49.547Z,6.07
2023-01-11T08:29:17.282Z,7.53
2023-01-11T08:31:46.659Z,6.75
2023-01-11T08:34:15.012Z,6.05
2023-01-11T08:36:42.568Z,6.35
2023-01-11T08:39:10.500Z,9.35
2023-01-11T08:41:39.217Z,10.65
2023-01-11T08:44:09.521Z,9.43
2023-01-11T08:46:38.227Z,9.07
2023-01-11T08:49:21.642Z,5.32
2023-01-11T08:51:55.560Z,8.93
2023-01-11T08:54:33.372Z,4.70
2023-01-11T08:57:06.724Z,6.13
2023-01-11T08:59:35.328Z,7.93
2023-01-11T09:02:03.846Z,7.55
2023-01-11T09:04:32.186Z,11.25
2023-01-11T09:06:59.837Z,7.20
2023-01-11T09:09:30.744Z,10.77
2023-01-11T09:12:00.911Z,6.05
2023-01-11T09:17:02.324Z,5.75
2023-01-11T09:19:30.507Z,8.77
2023-01-11T09:22:00.924Z,6.25
2023-01-11T09:24:29.275Z,7.13
2023-01-11T09:27:01.859Z,6.20
2023-01-11T09:29:32.555Z,7.72
2023-01-11T09:32:09.484Z,9.15
2023-01-11T09:34:37.209Z,7.88
2023-01-11T09:37:08.042Z,5.72
2023-01-11T09:39:36.205Z,6.82
2023-01-11T09:42:37.795Z,5.63
2023-01-11T09:45:23.662Z,9.48
2023-01-11T09:48:23.457Z,7.10
2023-01-11T09:50:53.913Z,6.70
2023-01-11T09:53:38.869Z,8.18
2023-01-11T09:56:12.942Z,5.07
2023-01-11T09:58:42.829Z,7.53
2023-01-11T10:01:31.338Z,11.73
2023-01-11T10:04:40.605Z,8.52
2023-01-11T10:07:17.450Z,3.90
2023-01-11T10:18:31.914Z,4.95
2023-01-11T10:19:39.569Z,8.40
2023-01-11T10:22:33.896Z,9.75
2023-01-11T10:25:19.075Z,3.45
2023-01-11T10:27:55.644Z,8.35
2023-01-11T10:30:32.514Z,7.45
2023-01-11T10:33:36.444Z,7.65
2023-01-11T10:36:38.120Z,6.57
2023-01-11T10:39:32.528Z,10.20
2023-01-11T10:42:28.716Z,4.60
2023-01-11T10:45:13.769Z,5.00
2023-01-11T10:47:46.338Z,7.95
2023-01-11T10:50:39.042Z,6.63
2023-01-11T10:53:24.507Z,5.43
2023-01-11T10:55:58.762Z,5.20
2023-01-11T10:59:01.181Z,6.65
2023-01-11T11:01:41.097Z,7.82
2023-01-11T11:04:44.002Z,9.70
2023-01-11T11:07:33.002Z,7.20
2023-01-11T11:10:30.273Z,6.35
2023-01-11T11:13:12.653Z,6.50
2023-01-11T11:15:49.162Z,5.63
2023-01-11T11:18:16.954Z,7.88
2023-01-11T11:20:46.532Z,13.63
2023-01-11T11:23:15.975Z,9.52
2023-01-11T11:25:49.043Z,7.88
2023-01-11T11:28:20.710Z,8.35
2023-01-11T11:30:48.839Z,6.35
2023-01-11T11:33:21.045Z,7.72
2023-01-11T11:36:09.028Z,6.53
2023-01-11T11:38:42.489Z,7.10
2023-01-11T11:41:17.472Z,8.18
2023-01-11T11:43:47.434Z,8.80
2023-01-11T11:46:19.495Z,6.43
2023-01-11T11:51:28.577Z,6.10
2023-01-11T11:53:57.868Z,8.90
2023-01-11T11:56:28.037Z,7.57
2023-01-11T12:01:24.388Z,8.30
2023-01-11T12:03:54.839Z,7.00
2023-01-11T12:06:25.180Z,6.72
2023-01-11T12:11:35.246Z,6.03
2023-01-11T12:14:16.661Z,7.60
2023-01-11T12:16:45.520Z,7.25
2023-01-11T12:19:35.308Z,7.20
2023-01-11T12:22:21.501Z,5.53
2023-01-11T12:25:21.847Z,10.95
2023-01-11T12:27:55.931Z,9.23
2023-01-11T12:30:52.565Z,5.70
2023-01-11T12:33:25.715Z,12.93
2023-01-11T12:36:23.737Z,4.82
2023-01-11T12:38:51.394Z,11.57
2023-01-11T12:41:18.971Z,6.95
2023-01-11T12:44:08.587Z,7.82
2023-01-11T12:46:36.502Z,4.93
2023-01-11T12:49:16.622Z,9.27
2023-01-11T12:52:31.998Z,10.30
2023-01-11T12:55:13.762Z,7.70
2023-01-11T12:58:07.982Z,7.65
2023-01-11T13:00:41.839Z,8.52
2023-01-11T13:03:15.351Z,7.63
2023-01-11T13:06:06.853Z,7.90
2023-01-11T13:08:36.792Z,6.32
2023-01-11T13:11:37.892Z,6.00
2023-01-11T13:14:46.960Z,5.85
2023-01-11T13:17:47.746Z,11.43
2023-01-11T13:20:59.477Z,5.13
2023-01-11T13:23:40.672Z,6.75
2023-01-11T13:26:19.761Z,8.63
2023-01-11T13:28:53.505Z,8.38
2023-01-11T13:31:22.496Z,5.90
2023-01-11T13:33:56.264Z,7.53
2023-01-11T13:36:30.818Z,7.60
2023-01-11T13:39:29.993Z,5.85
2023-01-11T13:42:05.947Z,4.63
2023-01-11T13:44:37.343Z,5.35
2023-01-11T13:47:05.097Z,4.97
2023-01-11T13:49:33.074Z,6.20
2023-01-11T13:52:18.759Z,6.40
2023-01-11T13:55:01.948Z,4.93
2023-01-11T13:57:48.111Z,6.20
2023-01-11T14:00:41.701Z,8.15
2023-01-11T14:03:28.923Z,8.02
2023-01-11T14:06:20.132Z,5.10
2023-01-11T14:09:18.558Z,7.63
2023-01-11T14:12:06.511Z,7.50
2023-01-11T14:14:37.772Z,7.07
2023-01-11T14:17:18.929Z,4.70
2023-01-11T14:20:28.843Z,5.97
2023-01-11T14:23:05.534Z,5.60
2023-01-11T14:25:36.235Z,4.07
2023-01-11T14:28:29.302Z,4.97
2023-01-11T14:31:06.559Z,6.45
2023-01-11T14:33:46.908Z,5.85
2023-01-11T14:36:14.688Z,8.25
2023-01-11T14:38:42.304Z,7.43
2023-01-11T14:41:28.471Z,5.45
2023-01-11T14:44:06.504Z,4.93
2023-01-11T14:47:11.068Z,5.50
2023-01-11T14:49:39.012Z,5.43
2023-01-11T14:52:14.160Z,4.82
2023-01-11T14:54:49.618Z,4.45
2023-01-11T14:57:41.971Z,5.90
2023-01-11T15:00:38.530Z,6.30
2023-01-11T15:03:08.988Z,5.90
2023-01-11T15:05:47.145Z,4.75
2023-01-11T15:08:14.805Z,5.45
2023-01-11T15:11:07.880Z,7.43
2023-01-11T15:13:37.810Z,5.32
2023-01-11T15:16:33.953Z,6.70
2023-01-11T15:19:08.073Z,5.43
2023-01-11T15:21:47.976Z,6.88
2023-01-11T15:24:26.739Z,6.45
2023-01-11T15:26:58.503Z,4.80
2023-01-11T15:29:57.391Z,7.93
2023-01-11T15:32:35.900Z,7.20
2023-01-11T15:35:32.555Z,6.82
2023-01-11T15:38:23.493Z,10.18
2023-01-11T15:40:56.321Z,4.40
2023-01-11T15:43:49.275Z,6.28
2023-01-11T15:46:41.489Z,6.05
2023-01-11T15:49:21.058Z,8.00
2023-01-11T15:52:09.618Z,5.28
2023-01-11T15:55:05.103Z,4.32
2023-01-11T15:57:58.524Z,7.28
2023-01-11T16:00:51.960Z,9.43
2023-01-11T16:03:36.999Z,4.72
2023-01-11T16:06:10.473Z,4.47
2023-01-11T16:09:04.553Z,2.92
2023-01-11T16:11:44.900Z,3.65
2023-01-11T16:14:33.842Z,2.15
2023-01-11T16:17:01.727Z,5.80
2023-01-11T16:19:39.870Z,5.38
2023-01-11T16:22:19.879Z,4.70
2023-01-11T16:24:52.492Z,2.15
2023-01-11T16:27:34.933Z,4.00
2023-01-11T16:30:02.954Z,4.80
2023-01-11T16:32:34.791Z,4.43
2023-01-11T16:35:03.738Z,6.40
2023-01-11T16:37:45.267Z,5.20
2023-01-11T16:40:42.257Z,5.63
2023-01-11T16:43:17.802Z,2.20
2023-01-11T16:45:50.673Z,6.18
2023-01-11T16:48:26.057Z,5.22
2023-01-11T16:51:06.003Z,3.42
2023-01-11T16:53:35.097Z,5.03
2023-01-11T16:56:21.216Z,2.88
2023-01-11T16:59:15.966Z,7.38
2023-01-11T17:01:59.047Z,4.93
2023-01-11T17:04:37.624Z,6.90
2023-01-11T17:07:23.036Z,4.22
2023-01-11T17:09:50.630Z,9.18
2023-01-11T17:12:26.451Z,4.78
2023-01-11T17:15:12.451Z,6.85
2023-01-11T17:17:40.475Z,4.53
2023-01-11T17:20:37.732Z,2.92
2023-01-11T17:23:06.462Z,2.53
2023-01-11T17:25:44.887Z,4.95
2023-01-11T17:28:20.210Z,3.42
2023-01-11T17:30:51.557Z,2.80
2023-01-11T17:33:34.679Z,5.18
2023-01-11T17:36:03.075Z,4.30
2023-01-11T17:38:31.201Z,6.90
2023-01-11T17:41:01.248Z,3.47
2023-01-11T17:46:26.509Z,1.90
2023-01-11T17:48:55.815Z,7.38
2023-01-11T17:51:27.409Z,4.47
2023-01-11T17:53:55.117Z,3.33
2023-01-11T17:56:41.803Z,3.53
2023-01-11T17:59:12.127Z,3.08
2023-01-11T18:01:39.987Z,2.70
2023-01-11T18:04:19.028Z,3.00
2023-01-11T18:06:48.652Z,2.35
2023-01-11T18:09:32.634Z,2.40
2023-01-11T18:12:14.267Z,5.47
2023-01-11T18:15:05.988Z,4.80
2023-01-11T18:17:37.362Z,3.08
2023-01-11T18:20:24.734Z,2.60
2023-01-11T18:22:56.177Z,3.97
2023-01-11T18:25:26.196Z,2.55
2023-01-11T18:28:21.545Z,6.82
2023-01-11T18:31:01.814Z,5.85
2023-01-11T18:33:33.545Z,2.45
2023-01-11T18:36:04.038Z,4.85
2023-01-11T18:38:34.479Z,4.43
2023-01-11T18:41:26.344Z,4.38
2023-01-11T18:43:54.745Z,5.03
2023-01-11T18:46:22.092Z,2.67
2023-01-11T18:48:49.906Z,4.63
2023-01-11T18:51:28.687Z,2.35
2023-01-11T18:53:56.275Z,4.03
2023-01-11T18:56:24.009Z,4.45
2023-01-11T18:58:51.780Z,4.85
2023-01-11T19:01:19.529Z,3.90
2023-01-11T19:03:47.519Z,3.75
2023-01-11T19:06:19.387Z,5.65
2023-01-11T19:08:46.785Z,2.20
2023-01-11T19:11:15.551Z,6.70
2023-01-11T19:13:45.074Z,2.55
2023-01-11T19:16:14.363Z,1.85
2023-01-11T19:18:41.945Z,1.83
2023-01-11T19:21:11.908Z,3.65
2023-01-11T19:23:39.596Z,7.40
2023-01-11T19:26:07.229Z,2.45
2023-01-11T19:28:35.338Z,2.53
2023-01-11T19:31:11.466Z,2.00
2023-01-11T19:33:40.369Z,2.58
2023-01-11T19:36:10.361Z,3.70
2023-01-11T19:38:39.245Z,5.03
2023-01-11T19:41:08.884Z,4.15
2023-01-11T19:43:36.897Z,2.00
2023-01-11T19:46:04.578Z,4.88
2023-01-11T19:48:34.364Z,1.35
2023-01-11T19:51:05.624Z,1.95
2023-01-11T19:53:33.174Z,5.07
2023-01-11T19:56:08.164Z,1.30
2023-01-11T19:58:38.763Z,1.35
2023-01-11T20:01:11.135Z,1.60
2023-01-11T20:03:42.702Z,1.45
2023-01-11T20:06:10.295Z,1.38
2023-01-11T20:08:38.824Z,1.02
2023-01-11T20:11:08.269Z,1.25
2023-01-11T20:13:36.922Z,1.27
2023-01-11T20:16:09.617Z,1.30
2023-01-11T20:18:37.202Z,1.48
2023-01-11T20:21:04.951Z,1.15
2023-01-11T20:23:33.553Z,1.27
2023-01-11T20:26:02.933Z,1.52
2023-01-11T20:28:31.730Z,1.58
2023-01-11T20:31:02.050Z,1.15
2023-01-11T20:33:30.113Z,1.10
2023-01-11T20:35:57.790Z,1.15
2023-01-11T20:38:25.601Z,1.40
2023-01-11T20:40:53.310Z,1.20
2023-01-11T20:43:20.938Z,1.30
2023-01-11T20:45:58.822Z,1.23
2023-01-11T20:48:26.306Z,1.52
2023-01-11T20:50:53.855Z,1.63
2023-01-11T20:53:21.353Z,1.00
2023-01-11T20:55:48.804Z,1.20
2023-01-11T20:58:16.514Z,1.08
2023-01-11T21:00:44.312Z,1.25
2023-01-11T21:03:11.982Z,1.02
2023-01-11T21:05:39.736Z,1.00
2023-01-11T21:08:07.338Z,1.23
2023-01-11T21:10:34.979Z,1.10
2023-01-11T21:13:03.981Z,1.52
2023-01-11T21:15:31.755Z,1.23
2023-01-11T21:17:59.470Z,1.25
2023-01-11T21:20:26.937Z,1.20
2023-01-11T21:22:54.386Z,1.10
2023-01-11T21:25:21.901Z,1.10
2023-01-11T21:27:50.761Z,1.00
2023-01-11T21:30:21.813Z,1.20
2023-01-11T21:32:49.796Z,1.20
2023-01-11T21:35:17.466Z,1.52
2023-01-11T21:37:47.408Z,1.27
2023-01-11T21:40:15.027Z,1.15
2023-01-11T21:42:42.699Z,1.00
2023-01-11T21:45:11.613Z,1.08
2023-01-11T21:47:41.878Z,1.00
2023-01-11T21:52:37.405Z,1.30
2023-01-11T21:55:05.269Z,1.00
2023-01-11T21:57:32.917Z,1.10
2023-01-11T22:00:00.794Z,0.90
2023-01-11T22:02:28.437Z,1.20
2023-01-11T22:04:57.759Z,1.20
2023-01-11T22:07:28.844Z,1.23
2023-01-11T22:10:04.489Z,1.30
2023-01-11T22:12:33.800Z,1.17
2023-01-11T22:15:01.736Z,1.50
2023-01-11T22:17:29.376Z,1.30
2023-01-11T22:19:57.019Z,1.10
2023-01-11T22:22:24.597Z,1.17
2023-01-11T22:24:51.931Z,1.17
2023-01-11T22:27:19.628Z,2.33
2023-01-11T22:29:48.407Z,1.25
2023-01-11T22:32:16.093Z,1.50
2023-01-11T22:34:44.068Z,1.58
2023-01-11T22:37:11.829Z,1.70
2023-01-11T22:39:40.689Z,0.93
2023-01-11T22:42:08.370Z,1.23
2023-01-11T22:44:36.142Z,1.30
2023-01-11T22:47:03.783Z,1.15
2023-01-11T22:49:31.529Z,1.25
2023-01-11T22:51:59.213Z,1.02
2023-01-11T22:54:27.136Z,0.98
2023-01-11T22:56:54.811Z,1.60
2023-01-11T22:59:22.517Z,1.08
2023-01-11T23:01:50.315Z,1.55
2023-01-11T23:04:18.185Z,1.08
2023-01-11T23:06:45.742Z,1.70
2023-01-11T23:09:17.022Z,1.30
2023-01-11T23:12:03.411Z,1.17
2023-01-11T23:14:31.424Z,1.42
2023-01-11T23:17:08.431Z,1.23
2023-01-11T23:19:46.124Z,0.95
2023-01-11T23:22:16.985Z,1.10
2023-01-11T23:24:44.692Z,1.10
2023-01-11T23:27:12.237Z,1.52
2023-01-11T23:29:39.920Z,1.10
2023-01-11T23:32:08.440Z,1.20
2023-01-11T23:34:36.004Z,0.90
2023-01-11T23:37:03.886Z,1.30
2023-01-11T23:39:32.888Z,1.52
2023-01-11T23:42:18.766Z,1.08
2023-01-11T23:44:47.092Z,0.93
2023-01-11T23:47:25.096Z,2.08
2023-01-11T23:49:54.742Z,1.30
2023-01-11T23:52:25.856Z,1.48
2023-01-11T23:54:55.508Z,1.67
2023-01-11T23:57:24.689Z,1.55
2023-01-11T23:59:52.325Z,1.33
